MAPA DE AEROPUERTO

INFORMACIÓN METAR y TAF

METAR FOR LEZL
ADDS - METARS form results

(2238 UTC 14 July 2020)
Data provider http://aviationweather.gov/metar/data/
 
METAR text: LEZL 142230Z 23009KT 200V270 CAVOK 27/16 Q1011 NOSIG
Conditions at: LEZL (SEVILLA (CIV/MIL, ES) observed 2230 UTC 14 July 2020
Temperature: 27.0°C (81°F)
Dewpoint: 16.0°C (61°F) [RH = 51%]
Pressure (altimeter): 29.85 inches Hg (1011.0 mb)
Winds: from the SW (230 degrees) at 10 MPH (9 knots; 4.6 m/s)
Visibility: 6 or more miles (10+ km)
Ceiling: ceiling and visibility are OK
Clouds: unknown
Weather: no significant weather observed at this time

METAR text: LEZL 142200Z 21007KT 190V250 CAVOK 27/16 Q1011 NOSIG
Conditions at: LEZL (SEVILLA (CIV/MIL, ES) observed 2200 UTC 14 July 2020
Temperature: 27.0°C (81°F)
Dewpoint: 16.0°C (61°F) [RH = 51%]
Pressure (altimeter): 29.85 inches Hg (1011.0 mb)
Winds: from the SSW (210 degrees) at 8 MPH (7 knots; 3.6 m/s)
Visibility: 6 or more miles (10+ km)
Ceiling: ceiling and visibility are OK
Clouds: unknown
Weather: no significant weather observed at this time

Forecast for: LEZL (SEVILLA (CIV/MIL, ES)
Text: TAF LEZL 142000Z 1421/1521 23011KT CAVOK TX38/1516Z TN24/1505Z
Forecast period: 2100 to 2300 UTC 14 July 2020
Forecast type: FROM: standard forecast or significant change
Winds: from the SW (230 degrees) at 13 MPH (11 knots; 5.7 m/s)
Visibility: 6 or more miles 10+ km)
Ceiling: unknown
Clouds: missing
Weather: no significant weather forecast for this period
Text: BECMG 1423/1502 34003KT
Forecast period: 2300 UTC 14 July 2020 to 0600 UTC 15 July 2020
Forecast type: BECOMING: Conditions expected to become as follows by 0200 UTC 15 July 2020
Winds: from the NNW (340 degrees) at 3 MPH (3 knots; 1.5 m/s)
Visibility: 6 or more miles 10+ km)
Ceiling: unknown
Clouds: missing
Weather: no significant weather forecast for this period
Text: BECMG 1506/1508 08010KT
Forecast period: 0600 to 1800 UTC 15 July 2020
Forecast type: BECOMING: Conditions expected to become as follows by 0800 UTC 15 July 2020
Winds: from the E (80 degrees) at 12 MPH (10 knots; 5.1 m/s)
Visibility: 6 or more miles 10+ km)
Ceiling: unknown
Clouds: missing
Weather: no significant weather forecast for this period
Text: BECMG 1518/1520 VRB03KT
Forecast period: 1800 to 2100 UTC 15 July 2020
Forecast type: BECOMING: Conditions expected to become as follows by 2000 UTC 15 July 2020
Winds: variable direction winds at 3 MPH (3 knots; 1.5 m/s)
Visibility: 6 or more miles 10+ km)
Ceiling: unknown
Clouds: missing
Weather: no significant weather forecast for this period